Time;durP1;ratioP1;P1;durP2;ratioP2;P2;SDS_P1;SDS_P2;PMS_P1;PMS_P2;Temp;Humidity;BMP_temperature;BMP_pressure;BME280_temperature;BME280_humidity;BME280_pressure;Samples;Min_cycle;Max_cycle;Signal;HPM_P1;HPM_P2
2022/06/22 00:00:12;;;;;;;;;;;22.00;44.10;;;;;;5073456;28;19959;-57
2022/06/22 00:02:39;;;;;;;;;;;22.00;43.60;;;;;;5066358;28;19939;-54
2022/06/22 00:05:06;;;;;;;;;;;22.00;43.60;;;;;;5069718;28;19928;-54
2022/06/22 00:07:35;;;;;;;;;;;22.00;43.60;;;;;;5070786;28;19967;-51
2022/06/22 00:10:05;;;;;;;;;;;22.00;43.60;;;;;;5049803;28;19924;-51
2022/06/22 00:12:33;;;;;;;;;;;22.00;43.60;;;;;;5071750;28;20027;-55
2022/06/22 00:15:01;;;;;;;;;;;22.00;43.60;;;;;;5066268;28;19928;-57
2022/06/22 00:17:28;;;;;;;;;;;22.00;43.60;;;;;;5067870;28;19966;-55
2022/06/22 00:19:58;;;;;;;;;;;22.00;43.60;;;;;;5072511;28;19970;-57
2022/06/22 00:22:25;;;;;;;;;;;22.00;43.60;;;;;;5066491;28;19924;-56
2022/06/22 00:24:55;;;;;;;;;;;22.00;43.60;;;;;;5068005;28;19952;-54
2022/06/22 00:27:27;;;;;;;;;;;22.00;43.60;;;;;;5082760;28;19925;-55
2022/06/22 00:30:06;;;;;;;;;;;22.00;43.60;;;;;;5062274;28;19964;-52
2022/06/22 00:32:33;;;;;;;;;;;22.00;43.60;;;;;;5052802;28;20365;-55
2022/06/22 00:35:15;;;;;;;;;;;22.00;43.60;;;;;;5070122;28;19974;-55
2022/06/22 00:37:41;;;;;;;;;;;22.00;43.60;;;;;;5067016;28;19925;-56
2022/06/22 00:40:10;;;;;;;;;;;22.00;43.60;;;;;;5070624;28;19928;-56
2022/06/22 00:42:39;;;;;;;;;;;22.00;43.60;;;;;;5072550;28;19925;-57
2022/06/22 00:45:08;;;;;;;;;;;22.00;43.60;;;;;;5080104;28;20269;-53
2022/06/22 00:47:35;;;;;;;;;;;22.00;43.60;;;;;;5071291;28;20614;-57
2022/06/22 00:50:06;;;;;;;;;;;22.00;43.70;;;;;;5070689;28;19932;-56
2022/06/22 00:52:35;;;;;;;;;;;22.00;43.70;;;;;;5061808;28;19932;-56
2022/06/22 00:55:02;;;;;;;;;;;22.00;43.70;;;;;;5063783;28;19932;-57
2022/06/22 00:57:30;;;;;;;;;;;22.00;43.80;;;;;;5068728;28;19947;-58
2022/06/22 00:59:59;;;;;;;;;;;22.00;43.70;;;;;;5071484;28;19930;-56
2022/06/22 01:02:29;;;;;;;;;;;22.00;43.70;;;;;;5086057;28;19928;-55
2022/06/22 01:04:57;;;;;;;;;;;22.00;43.70;;;;;;5068351;28;19974;-56
2022/06/22 01:07:24;;;;;;;;;;;22.00;43.80;;;;;;5070991;28;19959;-50
2022/06/22 01:09:52;;;;;;;;;;;22.00;43.70;;;;;;5062355;28;19929;-53
2022/06/22 01:12:22;;;;;;;;;;;22.00;43.80;;;;;;5055975;28;19924;-54
2022/06/22 01:15:15;;;;;;;;;;;22.00;43.80;;;;;;5061181;28;19928;-53
2022/06/22 01:17:46;;;;;;;;;;;21.90;43.70;;;;;;5051813;28;19925;-55
2022/06/22 01:20:14;;;;;;;;;;;22.00;43.80;;;;;;5061722;28;19998;-56
2022/06/22 01:22:47;;;;;;;;;;;22.00;43.80;;;;;;5055107;28;20396;-57
2022/06/22 01:25:25;;;;;;;;;;;22.00;43.80;;;;;;5081471;28;20348;-57
2022/06/22 01:27:53;;;;;;;;;;;22.00;43.80;;;;;;5061495;28;19979;-51
2022/06/22 01:30:21;;;;;;;;;;;22.00;43.80;;;;;;5068837;28;19936;-63
2022/06/22 01:32:48;;;;;;;;;;;22.00;43.80;;;;;;5062216;28;19925;-53
2022/06/22 01:35:15;;;;;;;;;;;22.00;43.90;;;;;;5056173;28;19978;-53
2022/06/22 01:37:44;;;;;;;;;;;22.00;43.80;;;;;;5060876;28;20448;-57
2022/06/22 01:40:13;;;;;;;;;;;22.00;43.90;;;;;;5071434;28;19924;-53
2022/06/22 01:42:41;;;;;;;;;;;21.90;43.80;;;;;;5051783;28;19932;-54
2022/06/22 01:45:11;;;;;;;;;;;22.00;43.90;;;;;;5058403;28;19924;-57
2022/06/22 01:47:42;;;;;;;;;;;21.90;43.80;;;;;;5050583;28;19987;-56
2022/06/22 01:50:12;;;;;;;;;;;21.90;43.80;;;;;;5066616;28;19928;-57
2022/06/22 01:52:42;;;;;;;;;;;21.90;43.90;;;;;;5061748;28;19936;-52
2022/06/22 01:55:11;;;;;;;;;;;21.90;43.90;;;;;;5068685;28;19954;-56
2022/06/22 01:57:40;;;;;;;;;;;21.90;44.00;;;;;;5085749;28;20361;-56
2022/06/22 02:00:07;;;;;;;;;;;21.90;44.00;;;;;;5068337;28;19966;-55
2022/06/22 02:02:37;;;;;;;;;;;21.90;44.10;;;;;;5086884;28;20377;-54
2022/06/22 02:05:05;;;;;;;;;;;21.90;44.10;;;;;;5057582;28;19936;-53
2022/06/22 02:07:48;;;;;;;;;;;21.90;44.10;;;;;;5083726;28;19925;-55
2022/06/22 02:10:26;;;;;;;;;;;21.90;44.20;;;;;;5055998;28;19929;-55
2022/06/22 02:12:54;;;;;;;;;;;21.90;44.20;;;;;;5071557;28;19928;-57
2022/06/22 02:15:22;;;;;;;;;;;21.90;44.30;;;;;;5079633;28;19970;-57
2022/06/22 02:17:50;;;;;;;;;;;21.90;44.30;;;;;;5071503;28;19929;-57
2022/06/22 02:20:23;;;;;;;;;;;21.90;44.30;;;;;;5069177;28;19925;-56
2022/06/22 02:22:50;;;;;;;;;;;21.90;44.40;;;;;;5075813;28;20019;-54
2022/06/22 02:25:17;;;;;;;;;;;21.90;44.40;;;;;;5062662;28;19925;-56
2022/06/22 02:27:43;;;;;;;;;;;21.90;44.40;;;;;;5086007;28;20317;-55
2022/06/22 02:30:10;;;;;;;;;;;21.90;44.40;;;;;;5070235;28;20343;-55
2022/06/22 02:32:38;;;;;;;;;;;21.90;44.40;;;;;;5053705;28;19924;-55
2022/06/22 02:35:08;;;;;;;;;;;21.90;44.40;;;;;;5057470;28;19974;-55
2022/06/22 02:37:35;;;;;;;;;;;21.90;44.40;;;;;;5065696;28;19925;-53
2022/06/22 02:40:03;;;;;;;;;;;21.90;44.40;;;;;;5058993;28;19928;-53
2022/06/22 02:45:15;;;;;;;;;;;21.90;44.30;;;;;;5051308;28;19939;-51
2022/06/22 02:47:45;;;;;;;;;;;21.80;44.80;;;;;;5070130;28;19931;-53
2022/06/22 02:50:15;;;;;;;;;;;21.90;44.30;;;;;;5052154;28;19925;-53
2022/06/22 02:52:44;;;;;;;;;;;21.90;44.30;;;;;;5075164;28;20012;-55
2022/06/22 02:55:11;;;;;;;;;;;21.90;44.30;;;;;;5070389;28;19936;-55
2022/06/22 02:57:41;;;;;;;;;;;21.90;44.30;;;;;;5073758;28;19929;-54
2022/06/22 03:00:09;;;;;;;;;;;21.90;44.30;;;;;;5073495;28;19924;-52
2022/06/22 03:02:36;;;;;;;;;;;21.80;44.20;;;;;;5080366;28;20373;-53
2022/06/22 03:05:05;;;;;;;;;;;21.80;44.10;;;;;;5063725;28;19978;-56
2022/06/22 03:07:33;;;;;;;;;;;21.90;44.30;;;;;;5072306;28;19928;-53
2022/06/22 03:10:02;;;;;;;;;;;21.80;44.20;;;;;;5063499;28;19940;-51
2022/06/22 03:12:29;;;;;;;;;;;21.90;44.30;;;;;;5068015;28;20006;-54
2022/06/22 03:14:56;;;;;;;;;;;21.90;44.30;;;;;;5056149;28;19986;-54
2022/06/22 03:17:25;;;;;;;;;;;21.90;44.30;;;;;;5072428;28;19924;-55
2022/06/22 03:19:52;;;;;;;;;;;21.90;44.30;;;;;;5071320;28;19962;-55
2022/06/22 03:22:21;;;;;;;;;;;21.90;44.30;;;;;;5064052;28;19929;-53
2022/06/22 03:24:51;;;;;;;;;;;21.80;44.20;;;;;;5089081;28;19971;-50
2022/06/22 03:27:19;;;;;;;;;;;21.80;44.20;;;;;;5078439;28;19964;-54
2022/06/22 03:29:47;;;;;;;;;;;21.80;44.20;;;;;;5073342;28;19924;-52
2022/06/22 03:32:15;;;;;;;;;;;21.80;44.20;;;;;;5066552;28;19921;-53
2022/06/22 03:34:43;;;;;;;;;;;21.80;44.20;;;;;;5071826;28;19983;-51
2022/06/22 03:37:10;;;;;;;;;;;21.80;44.20;;;;;;5072899;28;19928;-55
2022/06/22 03:39:37;;;;;;;;;;;21.80;44.30;;;;;;5084050;28;19925;-52
2022/06/22 03:42:08;;;;;;;;;;;21.80;44.30;;;;;;5060920;28;19931;-51
2022/06/22 03:44:36;;;;;;;;;;;21.80;44.30;;;;;;5060607;28;20369;-48
2022/06/22 03:47:03;;;;;;;;;;;21.80;44.30;;;;;;5073225;28;19928;-50
2022/06/22 03:49:31;;;;;;;;;;;21.80;44.30;;;;;;5065522;28;19928;-52
2022/06/22 03:52:00;;;;;;;;;;;21.80;44.30;;;;;;5067255;28;20027;-56
2022/06/22 03:54:28;;;;;;;;;;;21.80;44.30;;;;;;5065938;28;19951;-56
2022/06/22 03:56:55;;;;;;;;;;;21.80;44.30;;;;;;5066540;28;19971;-53
2022/06/22 03:59:24;;;;;;;;;;;21.80;44.30;;;;;;5067869;28;19924;-54
2022/06/22 04:01:51;;;;;;;;;;;21.80;44.30;;;;;;5083005;28;19951;-52
2022/06/22 04:04:17;;;;;;;;;;;21.80;44.40;;;;;;5070338;28;19991;-56
2022/06/22 04:06:45;;;;;;;;;;;21.80;44.40;;;;;;5063477;28;19924;-55
2022/06/22 04:09:12;;;;;;;;;;;21.80;44.40;;;;;;5084161;28;19924;-53
2022/06/22 04:11:39;;;;;;;;;;;21.80;44.40;;;;;;5069586;28;20442;-55
2022/06/22 04:14:08;;;;;;;;;;;21.80;44.40;;;;;;5087412;28;19925;-55
2022/06/22 04:16:39;;;;;;;;;;;21.80;44.40;;;;;;5070328;28;19929;-53
2022/06/22 04:19:06;;;;;;;;;;;21.80;44.40;;;;;;5066134;28;19940;-52
2022/06/22 04:21:33;;;;;;;;;;;21.80;44.40;;;;;;5063139;28;19925;-53
2022/06/22 04:24:01;;;;;;;;;;;21.80;44.50;;;;;;5061553;28;19924;-52
2022/06/22 04:26:29;;;;;;;;;;;21.90;44.60;;;;;;5070005;28;20006;-55
2022/06/22 04:28:57;;;;;;;;;;;21.90;44.70;;;;;;5061758;28;19928;-50
2022/06/22 04:31:26;;;;;;;;;;;21.90;44.80;;;;;;5061279;28;20293;-54
2022/06/22 04:33:58;;;;;;;;;;;21.80;44.70;;;;;;5071282;28;19931;-51
2022/06/22 04:36:25;;;;;;;;;;;21.90;44.90;;;;;;5064635;28;20439;-53
2022/06/22 04:38:53;;;;;;;;;;;21.90;44.90;;;;;;5086634;28;19928;-49
2022/06/22 04:41:22;;;;;;;;;;;21.80;44.80;;;;;;5060471;28;20062;-52
2022/06/22 04:43:49;;;;;;;;;;;21.80;44.90;;;;;;5064040;28;20343;-54
2022/06/22 04:46:18;;;;;;;;;;;21.90;45.00;;;;;;5085402;28;19959;-55
2022/06/22 04:48:47;;;;;;;;;;;21.80;44.90;;;;;;5065665;28;19955;-52
2022/06/22 04:51:16;;;;;;;;;;;21.80;44.90;;;;;;5066111;28;19925;-54
2022/06/22 04:53:44;;;;;;;;;;;21.80;45.00;;;;;;5055067;28;19924;-54
2022/06/22 04:56:11;;;;;;;;;;;21.80;45.00;;;;;;5059875;28;19963;-56
2022/06/22 04:58:39;;;;;;;;;;;21.80;45.00;;;;;;5057076;28;19928;-55
2022/06/22 05:01:06;;;;;;;;;;;21.80;45.00;;;;;;5066549;28;19931;-54
2022/06/22 05:03:33;;;;;;;;;;;21.80;45.10;;;;;;5076706;28;20381;-55
2022/06/22 05:06:00;;;;;;;;;;;21.80;45.10;;;;;;5069622;28;19928;-51
2022/06/22 05:08:30;;;;;;;;;;;21.80;45.10;;;;;;5064209;28;20029;-53
2022/06/22 05:10:58;;;;;;;;;;;21.80;45.10;;;;;;5060934;28;19925;-50
2022/06/22 05:13:26;;;;;;;;;;;21.80;45.20;;;;;;5079084;28;20293;-55
2022/06/22 05:15:54;;;;;;;;;;;21.80;45.20;;;;;;5058401;28;20434;-54
2022/06/22 05:18:21;;;;;;;;;;;21.80;45.20;;;;;;5060154;28;19963;-54
2022/06/22 05:20:48;;;;;;;;;;;21.80;45.20;;;;;;5075348;28;20270;-55
2022/06/22 05:23:16;;;;;;;;;;;21.80;45.30;;;;;;5075691;28;19932;-55
2022/06/22 05:25:45;;;;;;;;;;;21.80;45.30;;;;;;5067043;28;19925;-55
2022/06/22 05:28:13;;;;;;;;;;;21.80;45.30;;;;;;5069030;28;20298;-53
2022/06/22 05:30:41;;;;;;;;;;;21.80;45.40;;;;;;5069340;28;20412;-56
2022/06/22 05:33:08;;;;;;;;;;;21.80;45.40;;;;;;5059534;28;20603;-55
2022/06/22 05:35:36;;;;;;;;;;;21.80;45.40;;;;;;5069978;28;19978;-54
2022/06/22 05:38:06;;;;;;;;;;;21.80;45.40;;;;;;5070134;28;19930;-54
2022/06/22 05:40:33;;;;;;;;;;;21.80;45.40;;;;;;5068769;28;19925;-54
2022/06/22 05:43:02;;;;;;;;;;;21.80;45.50;;;;;;5069100;28;19928;-53
2022/06/22 05:45:36;;;;;;;;;;;21.80;45.50;;;;;;5070511;28;19985;-56
2022/06/22 05:48:04;;;;;;;;;;;21.80;45.50;;;;;;5058690;28;19928;-56
2022/06/22 05:50:32;;;;;;;;;;;21.80;45.50;;;;;;5057692;28;19929;-56
2022/06/22 05:53:00;;;;;;;;;;;21.80;45.50;;;;;;5070266;28;20311;-53
2022/06/22 05:55:28;;;;;;;;;;;21.80;45.50;;;;;;5071040;28;19924;-56
2022/06/22 05:57:57;;;;;;;;;;;21.70;45.40;;;;;;5063443;28;19928;-52
2022/06/22 06:00:26;;;;;;;;;;;21.80;45.90;;;;;;5068670;28;19928;-56
2022/06/22 06:02:56;;;;;;;;;;;21.80;45.60;;;;;;5057277;28;19928;-57
2022/06/22 06:05:23;;;;;;;;;;;21.80;45.60;;;;;;5059217;28;20393;-53
2022/06/22 06:07:50;;;;;;;;;;;21.80;45.60;;;;;;5059132;28;19925;-54
2022/06/22 06:10:18;;;;;;;;;;;21.80;45.60;;;;;;5060657;28;19964;-54
2022/06/22 06:12:45;;;;;;;;;;;21.80;45.60;;;;;;5063145;28;19974;-54
2022/06/22 06:15:12;;;;;;;;;;;21.80;45.60;;;;;;5060633;28;20346;-57
2022/06/22 06:17:41;;;;;;;;;;;21.80;45.70;;;;;;5063740;28;20019;-57
2022/06/22 06:20:09;;;;;;;;;;;21.80;45.70;;;;;;5070706;28;19925;-54
2022/06/22 06:22:36;;;;;;;;;;;21.70;45.60;;;;;;5067194;28;19985;-57
2022/06/22 06:27:51;;;;;;;;;;;21.80;45.70;;;;;;5061393;28;19924;-56
2022/06/22 06:30:19;;;;;;;;;;;21.80;45.70;;;;;;5057151;28;19928;-54
2022/06/22 06:32:48;;;;;;;;;;;21.80;45.80;;;;;;5065558;28;19986;-51
2022/06/22 06:35:17;;;;;;;;;;;21.80;45.70;;;;;;5059109;28;20435;-56
2022/06/22 06:37:45;;;;;;;;;;;21.80;45.80;;;;;;5083894;28;20270;-56
2022/06/22 06:40:12;;;;;;;;;;;21.70;45.70;;;;;;5069471;28;19978;-55
2022/06/22 06:42:41;;;;;;;;;;;21.70;45.70;;;;;;5069100;28;19931;-54
2022/06/22 06:45:09;;;;;;;;;;;21.80;45.80;;;;;;5064059;28;19932;-55
2022/06/22 06:47:36;;;;;;;;;;;21.80;45.70;;;;;;5065134;28;19990;-53
2022/06/22 06:50:06;;;;;;;;;;;21.80;45.70;;;;;;5068966;28;19982;-54
2022/06/22 06:52:36;;;;;;;;;;;21.80;45.70;;;;;;5069927;28;20286;-56
2022/06/22 06:55:04;;;;;;;;;;;21.70;45.60;;;;;;5058824;28;19960;-56
2022/06/22 06:57:31;;;;;;;;;;;21.80;45.80;;;;;;5059521;28;20012;-56
2022/06/22 06:59:59;;;;;;;;;;;21.80;45.90;;;;;;5073463;28;19924;-52
2022/06/22 07:02:28;;;;;;;;;;;21.80;45.80;;;;;;5062441;28;19978;-55
2022/06/22 07:04:54;;;;;;;;;;;21.80;45.80;;;;;;5084458;28;19931;-56
2022/06/22 07:07:25;;;;;;;;;;;21.80;45.80;;;;;;5062913;28;19925;-54
2022/06/22 07:09:52;;;;;;;;;;;21.80;45.80;;;;;;5061596;28;19994;-53
2022/06/22 07:12:19;;;;;;;;;;;21.80;45.80;;;;;;5047178;28;20280;-55
2022/06/22 07:14:46;;;;;;;;;;;21.80;45.80;;;;;;5059196;28;19932;-54
2022/06/22 07:17:14;;;;;;;;;;;21.80;45.70;;;;;;5066283;28;19936;-57
2022/06/22 07:19:41;;;;;;;;;;;21.80;45.80;;;;;;5067086;28;20535;-54
2022/06/22 07:22:09;;;;;;;;;;;21.80;45.80;;;;;;5076512;28;19931;-50
2022/06/22 07:24:38;;;;;;;;;;;21.80;45.80;;;;;;5077129;28;19925;-55
2022/06/22 07:27:06;;;;;;;;;;;21.80;45.80;;;;;;5071153;28;19935;-54
2022/06/22 07:29:35;;;;;;;;;;;21.80;46.30;;;;;;5071363;28;20007;-53
2022/06/22 07:32:04;;;;;;;;;;;21.90;45.80;;;;;;5063445;28;19935;-53
2022/06/22 07:34:34;;;;;;;;;;;21.90;45.80;;;;;;5058490;28;19936;-55
2022/06/22 07:37:02;;;;;;;;;;;21.90;45.80;;;;;;5076044;28;19932;-54
2022/06/22 07:39:30;;;;;;;;;;;21.90;45.80;;;;;;5058581;28;19929;-52
2022/06/22 07:41:59;;;;;;;;;;;21.90;45.80;;;;;;5064053;28;19932;-55
2022/06/22 07:44:26;;;;;;;;;;;21.90;45.80;;;;;;5067070;28;19934;-55
2022/06/22 07:46:53;;;;;;;;;;;21.90;46.40;;;;;;5061991;28;19935;-52
2022/06/22 07:49:22;;;;;;;;;;;21.90;45.80;;;;;;5064984;28;20377;-53
2022/06/22 07:51:50;;;;;;;;;;;21.90;45.80;;;;;;5063129;28;20021;-53
2022/06/22 07:54:17;;;;;;;;;;;22.00;45.90;;;;;;5064472;28;19932;-55
2022/06/22 07:56:52;;;;;;;;;;;22.00;45.90;;;;;;5065968;28;19932;-51
2022/06/22 07:59:21;;;;;;;;;;;22.00;45.80;;;;;;5074189;28;20277;-55
2022/06/22 08:01:48;;;;;;;;;;;22.00;45.90;;;;;;5065099;28;19925;-53
2022/06/22 08:04:17;;;;;;;;;;;22.00;45.80;;;;;;5063397;28;20019;-54
2022/06/22 08:06:46;;;;;;;;;;;22.00;45.90;;;;;;5082576;28;19975;-51
2022/06/22 08:09:14;;;;;;;;;;;22.00;45.80;;;;;;5064592;28;19955;-56
2022/06/22 08:11:41;;;;;;;;;;;22.00;45.80;;;;;;5068569;28;20007;-55
2022/06/22 08:14:09;;;;;;;;;;;22.00;45.80;;;;;;5055714;28;19925;-57
2022/06/22 08:16:38;;;;;;;;;;;22.00;45.80;;;;;;5057127;28;19965;-53
2022/06/22 08:19:05;;;;;;;;;;;22.00;45.80;;;;;;5078724;28;19925;-57
2022/06/22 08:21:32;;;;;;;;;;;22.00;46.10;;;;;;5058780;28;20027;-56
2022/06/22 08:23:58;;;;;;;;;;;22.00;45.80;;;;;;5055072;28;19924;-57
2022/06/22 08:26:26;;;;;;;;;;;22.00;45.80;;;;;;5063341;28;19929;-53
2022/06/22 08:28:52;;;;;;;;;;;22.00;45.80;;;;;;5063966;28;19932;-52
2022/06/22 08:31:19;;;;;;;;;;;22.00;45.80;;;;;;5068130;28;19924;-53
2022/06/22 08:33:48;;;;;;;;;;;22.00;45.80;;;;;;5061075;28;20405;-54
2022/06/22 08:36:16;;;;;;;;;;;22.10;45.90;;;;;;5062710;28;19983;-52
2022/06/22 08:38:48;;;;;;;;;;;22.00;45.80;;;;;;5063684;28;20373;-55
2022/06/22 08:41:19;;;;;;;;;;;22.10;45.80;;;;;;5075077;28;19931;-58
2022/06/22 08:43:46;;;;;;;;;;;22.10;45.80;;;;;;5068815;28;19955;-56
2022/06/22 08:46:17;;;;;;;;;;;22.10;45.90;;;;;;5068082;28;19981;-55
2022/06/22 08:48:50;;;;;;;;;;;22.10;45.90;;;;;;5084944;28;19955;-53
2022/06/22 08:51:20;;;;;;;;;;;22.10;45.90;;;;;;5059123;28;19939;-54
2022/06/22 08:53:55;;;;;;;;;;;22.10;45.90;;;;;;5058789;28;19942;-54
2022/06/22 08:56:25;;;;;;;;;;;22.10;45.90;;;;;;5078953;28;19988;-55
2022/06/22 08:59:09;;;;;;;;;;;22.10;45.90;;;;;;5070890;28;20388;-56
2022/06/22 09:01:39;;;;;;;;;;;22.10;45.90;;;;;;5061803;28;19974;-57
2022/06/22 09:04:21;;;;;;;;;;;22.10;45.90;;;;;;5059025;28;19932;-56
2022/06/22 09:06:55;;;;;;;;;;;22.20;46.00;;;;;;5067220;28;20251;-52
2022/06/22 09:09:42;;;;;;;;;;;22.20;46.00;;;;;;5063297;28;19925;-55
2022/06/22 09:12:11;;;;;;;;;;;22.20;46.00;;;;;;5045487;28;20377;-54
2022/06/22 09:14:43;;;;;;;;;;;22.20;46.00;;;;;;5060771;28;19986;-56
2022/06/22 09:17:24;;;;;;;;;;;22.20;46.00;;;;;;5060323;28;20206;-57
2022/06/22 09:20:10;;;;;;;;;;;22.20;46.00;;;;;;5077211;28;19932;-56
2022/06/22 09:22:42;;;;;;;;;;;22.20;46.00;;;;;;5055261;28;19929;-49
2022/06/22 09:25:13;;;;;;;;;;;22.20;45.90;;;;;;5057566;28;19929;-57
2022/06/22 09:27:41;;;;;;;;;;;22.20;45.90;;;;;;5057129;28;20502;-54
2022/06/22 09:30:12;;;;;;;;;;;22.20;45.90;;;;;;5058261;28;20043;-55
2022/06/22 09:33:00;;;;;;;;;;;22.20;45.90;;;;;;5061200;28;19932;-54
2022/06/22 09:35:31;;;;;;;;;;;22.20;45.80;;;;;;5068579;28;20322;-54
2022/06/22 09:38:02;;;;;;;;;;;22.20;45.80;;;;;;5064966;28;19932;-55
2022/06/22 09:40:34;;;;;;;;;;;22.20;45.80;;;;;;5058831;28;20460;-54
2022/06/22 09:43:22;;;;;;;;;;;22.20;45.80;;;;;;5058014;28;20535;-56
2022/06/22 09:45:52;;;;;;;;;;;22.20;45.70;;;;;;5051092;28;19929;-55
2022/06/22 09:48:36;;;;;;;;;;;22.20;45.80;;;;;;5060909;28;19951;-56
2022/06/22 09:51:12;;;;;;;;;;;22.30;45.80;;;;;;5061893;28;19942;-57
2022/06/22 09:53:54;;;;;;;;;;;22.20;45.80;;;;;;5060517;28;19967;-56
2022/06/22 09:56:40;;;;;;;;;;;22.30;45.80;;;;;;5055626;28;20321;-54
2022/06/22 09:59:22;;;;;;;;;;;22.30;45.80;;;;;;5061446;28;20019;-57
2022/06/22 10:01:52;;;;;;;;;;;22.30;45.80;;;;;;5066423;28;19924;-56
2022/06/22 10:04:38;;;;;;;;;;;22.30;45.80;;;;;;5059864;28;19970;-52
2022/06/22 10:07:08;;;;;;;;;;;22.30;45.80;;;;;;5060960;28;19938;-55
2022/06/22 10:09:46;;;;;;;;;;;22.30;45.80;;;;;;5059160;28;19977;-55
2022/06/22 10:12:17;;;;;;;;;;;22.30;45.80;;;;;;5063397;28;19978;-56
2022/06/22 10:14:50;;;;;;;;;;;22.30;45.80;;;;;;5064631;28;19951;-55
2022/06/22 10:17:32;;;;;;;;;;;22.30;45.80;;;;;;5067784;28;20459;-56
2022/06/22 10:20:05;;;;;;;;;;;22.30;45.80;;;;;;5061307;28;19947;-56
2022/06/22 10:22:40;;;;;;;;;;;22.30;45.80;;;;;;5078506;28;20363;-55
2022/06/22 10:25:28;;;;;;;;;;;22.30;45.80;;;;;;5062412;28;19928;-52
2022/06/22 10:28:07;;;;;;;;;;;22.30;45.80;;;;;;5045633;28;19974;-56
2022/06/22 10:30:36;;;;;;;;;;;22.30;45.70;;;;;;5056031;28;20844;-53
2022/06/22 10:33:28;;;;;;;;;;;22.30;45.70;;;;;;5076126;28;19931;-56
2022/06/22 10:36:07;;;;;;;;;;;22.30;45.80;;;;;;5055528;28;19928;-57
2022/06/22 10:38:37;;;;;;;;;;;22.30;45.80;;;;;;5061681;28;19932;-55
2022/06/22 10:46:43;;;;;;;;;;;22.30;45.80;;;;;;5057656;28;19928;-52
2022/06/22 10:49:30;;;;;;;;;;;22.30;45.70;;;;;;5071486;28;19925;-55
2022/06/22 10:52:21;;;;;;;;;;;22.30;45.70;;;;;;5066693;28;19928;-53
2022/06/22 10:55:03;;;;;;;;;;;22.30;45.60;;;;;;5057105;28;20450;-53
2022/06/22 10:57:38;;;;;;;;;;;22.30;45.60;;;;;;5041883;28;19931;-54
2022/06/22 11:00:10;;;;;;;;;;;22.30;45.50;;;;;;5055812;28;20314;-55
2022/06/22 11:02:55;;;;;;;;;;;22.30;45.50;;;;;;5061986;28;19928;-55
2022/06/22 11:05:27;;;;;;;;;;;22.30;45.40;;;;;;5052685;28;20258;-54
2022/06/22 11:08:03;;;;;;;;;;;22.30;45.40;;;;;;5064617;28;20392;-54
2022/06/22 11:10:38;;;;;;;;;;;22.30;45.40;;;;;;5053597;28;20537;-53
2022/06/22 11:13:13;;;;;;;;;;;22.30;45.40;;;;;;5055951;28;20432;-52
2022/06/22 11:15:57;;;;;;;;;;;22.30;45.40;;;;;;5067913;28;19931;-54
2022/06/22 11:18:31;;;;;;;;;;;22.30;45.40;;;;;;5064020;28;20237;-56
2022/06/22 11:21:01;;;;;;;;;;;22.30;45.40;;;;;;5059497;28;20395;-55
2022/06/22 11:23:34;;;;;;;;;;;22.30;45.40;;;;;;5079009;28;20008;-55
2022/06/22 11:32:20;;;;;;;;;;;22.30;45.30;;;;;;4997662;28;19961;-55
2022/06/22 11:34:52;;;;;;;;;;;22.30;45.30;;;;;;5013717;28;19933;-54
2022/06/22 11:37:22;;;;;;;;;;;22.40;45.30;;;;;;5039846;28;19970;-56
2022/06/22 11:40:03;;;;;;;;;;;22.40;45.20;;;;;;5075089;28;20381;-51
2022/06/22 11:42:36;;;;;;;;;;;22.40;45.10;;;;;;5058027;28;19933;-49
2022/06/22 11:48:11;;;;;;;;;;;22.40;45.10;;;;;;5057940;28;19932;-54
2022/06/22 11:50:44;;;;;;;;;;;22.40;45.10;;;;;;5078779;28;19984;-53
2022/06/22 11:53:15;;;;;;;;;;;22.40;45.00;;;;;;5082601;28;19939;-55
2022/06/22 11:55:43;;;;;;;;;;;22.40;44.90;;;;;;5059388;28;19935;-54
2022/06/22 11:58:24;;;;;;;;;;;22.40;44.80;;;;;;5062241;28;19936;-53
2022/06/22 12:00:56;;;;;;;;;;;22.40;44.80;;;;;;5063917;28;20015;-56
2022/06/22 12:03:47;;;;;;;;;;;22.40;44.70;;;;;;5065068;28;19925;-56
2022/06/22 12:06:28;;;;;;;;;;;22.40;44.70;;;;;;5060149;28;19935;-55
2022/06/22 12:09:00;;;;;;;;;;;22.40;44.60;;;;;;5056809;28;19959;-56
2022/06/22 12:11:30;;;;;;;;;;;22.40;44.60;;;;;;5063396;28;20014;-55
2022/06/22 12:16:46;;;;;;;;;;;22.40;44.60;;;;;;5060489;28;19932;-56
2022/06/22 12:19:18;;;;;;;;;;;22.40;44.50;;;;;;5060820;28;20011;-57
2022/06/22 12:21:59;;;;;;;;;;;22.40;44.50;;;;;;5065748;28;19924;-54
2022/06/22 12:24:31;;;;;;;;;;;22.40;44.30;;;;;;5058966;28;20428;-56
2022/06/22 12:26:59;;;;;;;;;;;22.40;44.20;;;;;;5063059;28;19947;-53
2022/06/22 12:29:47;;;;;;;;;;;22.50;44.20;;;;;;5068163;28;19994;-51
2022/06/22 12:32:15;;;;;;;;;;;22.40;44.10;;;;;;5059571;28;20346;-56
2022/06/22 12:34:44;;;;;;;;;;;22.50;44.10;;;;;;5057999;28;19925;-50
2022/06/22 12:37:12;;;;;;;;;;;22.40;43.90;;;;;;5064076;28;19928;-56
2022/06/22 12:39:42;;;;;;;;;;;22.40;43.90;;;;;;5058134;28;20151;-56
2022/06/22 12:42:14;;;;;;;;;;;22.40;43.80;;;;;;5053814;28;20029;-57
2022/06/22 12:44:44;;;;;;;;;;;22.40;43.90;;;;;;5064489;28;19928;-55
2022/06/22 12:47:22;;;;;;;;;;;22.50;44.00;;;;;;5066204;28;19932;-54
2022/06/22 12:49:50;;;;;;;;;;;22.50;44.00;;;;;;5060982;28;19924;-56
2022/06/22 12:52:18;;;;;;;;;;;22.40;43.80;;;;;;5084322;28;20290;-54
2022/06/22 12:54:47;;;;;;;;;;;22.50;43.90;;;;;;5056450;28;19933;-54
2022/06/22 12:57:15;;;;;;;;;;;22.50;43.90;;;;;;5083319;28;19935;-55
2022/06/22 12:59:43;;;;;;;;;;;22.50;43.90;;;;;;5059089;28;19924;-57
2022/06/22 13:02:12;;;;;;;;;;;22.40;43.80;;;;;;5076465;28;19932;-54
2022/06/22 13:04:38;;;;;;;;;;;22.50;43.80;;;;;;5066517;28;20455;-56
2022/06/22 13:07:06;;;;;;;;;;;22.50;43.60;;;;;;5062847;28;19981;-53
2022/06/22 13:09:32;;;;;;;;;;;22.50;43.60;;;;;;5059614;28;19936;-54
2022/06/22 13:12:01;;;;;;;;;;;22.50;43.60;;;;;;5076563;28;19924;-57
2022/06/22 13:14:31;;;;;;;;;;;22.50;43.60;;;;;;5075841;28;19978;-56
2022/06/22 13:17:03;;;;;;;;;;;22.50;43.50;;;;;;5063132;28;20290;-57
2022/06/22 13:19:32;;;;;;;;;;;22.50;43.50;;;;;;5058417;28;19928;-56
2022/06/22 13:22:01;;;;;;;;;;;22.50;43.50;;;;;;5055001;28;19924;-57
2022/06/22 13:24:30;;;;;;;;;;;22.50;43.40;;;;;;5072703;28;19925;-57
2022/06/22 13:26:59;;;;;;;;;;;22.50;43.40;;;;;;5055912;28;19928;-56
2022/06/22 13:29:29;;;;;;;;;;;22.50;43.40;;;;;;5061384;28;19933;-56
2022/06/22 13:31:58;;;;;;;;;;;22.50;43.50;;;;;;5072664;28;19929;-56
2022/06/22 13:34:26;;;;;;;;;;;22.50;43.50;;;;;;5062780;28;19928;-57
2022/06/22 13:36:55;;;;;;;;;;;22.50;43.50;;;;;;5063397;28;19933;-54
2022/06/22 13:39:26;;;;;;;;;;;22.50;43.50;;;;;;5077796;28;19924;-55
2022/06/22 13:41:57;;;;;;;;;;;22.50;43.50;;;;;;5066542;28;19972;-56
2022/06/22 13:44:42;;;;;;;;;;;22.50;43.50;;;;;;5057717;28;19944;-56
2022/06/22 13:47:29;;;;;;;;;;;22.60;43.60;;;;;;5064965;28;19978;-56
2022/06/22 13:50:14;;;;;;;;;;;22.50;43.50;;;;;;5046869;28;19928;-51
2022/06/22 13:52:43;;;;;;;;;;;22.60;43.50;;;;;;5057692;28;19956;-54
2022/06/22 13:55:15;;;;;;;;;;;22.60;43.40;;;;;;5058413;28;19947;-55
2022/06/22 13:57:43;;;;;;;;;;;22.60;43.30;;;;;;5078492;28;19928;-56
2022/06/22 14:00:11;;;;;;;;;;;22.60;43.10;;;;;;5065625;28;19933;-55
2022/06/22 14:02:44;;;;;;;;;;;22.60;43.10;;;;;;5054816;28;19928;-54
2022/06/22 14:05:13;;;;;;;;;;;22.60;43.10;;;;;;5061044;28;19998;-53
2022/06/22 14:07:42;;;;;;;;;;;22.60;43.10;;;;;;5076718;28;20326;-54
2022/06/22 14:10:11;;;;;;;;;;;22.60;43.00;;;;;;5056673;28;19933;-54
2022/06/22 14:12:39;;;;;;;;;;;22.60;42.90;;;;;;5074637;28;20314;-54
2022/06/22 14:15:08;;;;;;;;;;;22.60;42.80;;;;;;5062892;28;19924;-56
2022/06/22 14:17:37;;;;;;;;;;;22.60;42.80;;;;;;5057770;28;19924;-54
2022/06/22 14:20:06;;;;;;;;;;;22.60;42.80;;;;;;5061116;28;19931;-56
2022/06/22 14:22:37;;;;;;;;;;;22.60;42.80;;;;;;5065103;28;19947;-56
2022/06/22 14:25:07;;;;;;;;;;;22.60;42.80;;;;;;5061880;28;20007;-57
2022/06/22 14:27:36;;;;;;;;;;;22.60;42.80;;;;;;5079927;28;20013;-54
2022/06/22 14:30:08;;;;;;;;;;;22.60;42.80;;;;;;5055160;28;19924;-53
2022/06/22 14:32:38;;;;;;;;;;;22.60;43.10;;;;;;5058771;28;20281;-53
2022/06/22 14:35:09;;;;;;;;;;;22.60;42.90;;;;;;5065326;28;19929;-56
2022/06/22 14:37:38;;;;;;;;;;;22.60;42.90;;;;;;5061781;28;20005;-58
2022/06/22 14:40:06;;;;;;;;;;;22.60;42.90;;;;;;5062214;28;20472;-52
2022/06/22 14:42:35;;;;;;;;;;;22.60;42.90;;;;;;5082633;28;19929;-54
2022/06/22 14:45:03;;;;;;;;;;;22.60;42.90;;;;;;5055241;28;19932;-52
2022/06/22 14:47:33;;;;;;;;;;;22.70;43.00;;;;;;5057375;28;19930;-55
2022/06/22 14:50:01;;;;;;;;;;;22.70;43.00;;;;;;5063980;28;19930;-56
2022/06/22 14:52:31;;;;;;;;;;;22.60;42.90;;;;;;5060299;28;20393;-54
2022/06/22 14:54:59;;;;;;;;;;;22.70;43.00;;;;;;5058155;28;20377;-54
2022/06/22 14:57:29;;;;;;;;;;;22.70;43.00;;;;;;5059941;28;19924;-52